createdAt,value
2022-08-02T00:02:26.788Z,14.18
2022-08-02T00:07:23.156Z,14.10
2022-08-02T00:12:19.545Z,13.99
2022-08-02T00:17:16.096Z,13.91
2022-08-02T00:22:13.142Z,13.80
2022-08-02T00:27:09.986Z,13.71
2022-08-02T00:32:06.444Z,13.65
2022-08-02T00:37:03.891Z,13.54
2022-08-02T00:42:00.265Z,13.48
2022-08-02T00:46:56.639Z,13.37
2022-08-02T00:51:53.139Z,13.29
2022-08-02T00:56:51.223Z,13.21
2022-08-02T01:01:56.235Z,13.13
2022-08-02T01:06:54.448Z,13.08
2022-08-02T01:11:50.798Z,13.00
2022-08-02T01:16:52.757Z,12.91
2022-08-02T01:22:12.464Z,12.86
2022-08-02T01:27:31.621Z,12.74
2022-08-02T01:32:33.725Z,12.66
2022-08-02T01:37:51.590Z,12.65
2022-08-02T01:42:52.578Z,12.51
2022-08-02T01:47:50.466Z,12.41
2022-08-02T01:52:53.020Z,12.40
2022-08-02T01:57:57.473Z,12.26
2022-08-02T02:02:56.868Z,12.17
2022-08-02T02:07:58.308Z,11.94
2022-08-02T02:12:56.132Z,11.88
2022-08-02T02:18:12.630Z,11.71
2022-08-02T02:23:11.354Z,11.58
2022-08-02T02:28:12.900Z,11.66
2022-08-02T02:33:11.555Z,11.64
2022-08-02T02:38:11.342Z,11.45
2022-08-02T02:43:10.163Z,11.49
2022-08-02T02:48:08.560Z,11.48
2022-08-02T02:53:06.886Z,11.49
2022-08-02T02:58:03.656Z,11.49
2022-08-02T03:03:00.134Z,11.50
2022-08-02T03:07:56.535Z,11.53
2022-08-02T03:12:53.349Z,11.53
2022-08-02T03:17:49.679Z,11.48
2022-08-02T03:22:46.868Z,11.41
2022-08-02T03:27:43.272Z,11.31
2022-08-02T03:32:41.401Z,11.32
2022-08-02T03:37:38.479Z,11.22
2022-08-02T03:42:35.189Z,11.10
2022-08-02T03:47:33.302Z,11.17
2022-08-02T03:52:31.550Z,11.26
2022-08-02T03:57:27.992Z,11.23
2022-08-02T04:02:24.381Z,11.24
2022-08-02T04:08:33.849Z,11.26
2022-08-02T04:12:37.924Z,10.98
2022-08-02T04:17:37.825Z,11.02
2022-08-02T04:22:39.307Z,11.11
2022-08-02T04:27:50.146Z,11.22
2022-08-02T04:32:47.935Z,11.32
2022-08-02T04:38:09.490Z,11.35
2022-08-02T04:43:01.534Z,11.48
2022-08-02T04:48:06.128Z,11.54
2022-08-02T04:53:02.860Z,11.66
2022-08-02T04:57:59.359Z,11.70
2022-08-02T05:02:57.088Z,11.83
2022-08-02T05:07:53.710Z,12.14
2022-08-02T05:12:50.304Z,12.36
2022-08-02T05:17:48.702Z,12.59
2022-08-02T05:22:46.015Z,12.94
2022-08-02T05:27:42.541Z,13.16
2022-08-02T05:32:49.449Z,13.39
2022-08-02T05:37:48.150Z,13.68
2022-08-02T05:42:44.867Z,14.02
2022-08-02T05:47:41.463Z,14.41
2022-08-02T05:52:49.649Z,14.88
2022-08-02T05:57:51.851Z,15.33
2022-08-02T06:03:16.898Z,15.74
2022-08-02T06:08:14.331Z,16.20
2022-08-02T06:13:14.756Z,16.64
2022-08-02T06:18:11.322Z,16.83
2022-08-02T06:23:13.545Z,17.33
2022-08-02T06:28:11.670Z,17.55
2022-08-02T06:33:08.884Z,17.81
2022-08-02T06:38:07.811Z,18.01
2022-08-02T06:43:20.312Z,18.23
2022-08-02T06:48:16.807Z,18.39
2022-08-02T06:53:13.591Z,18.64
2022-08-02T06:58:13.777Z,18.80
2022-08-02T07:03:10.378Z,18.95
2022-08-02T07:08:07.132Z,19.14
2022-08-02T07:13:03.570Z,19.45
2022-08-02T07:17:59.966Z,19.53
2022-08-02T07:22:56.365Z,19.56
2022-08-02T07:27:52.950Z,19.74
2022-08-02T07:32:52.953Z,20.02
2022-08-02T07:37:55.154Z,20.48
2022-08-02T07:43:03.474Z,20.60
2022-08-02T07:48:00.924Z,20.20
2022-08-02T07:52:57.874Z,20.81
2022-08-02T07:57:54.619Z,21.38
2022-08-02T08:02:50.988Z,21.80
2022-08-02T08:07:47.410Z,21.05
2022-08-02T08:12:43.762Z,20.92
2022-08-02T08:17:40.175Z,21.17
2022-08-02T08:22:36.634Z,21.82
2022-08-02T08:27:32.993Z,22.16
2022-08-02T08:32:29.386Z,22.75
2022-08-02T08:37:25.772Z,22.45
2022-08-02T08:42:22.199Z,22.78
2022-08-02T08:47:20.803Z,23.03
2022-08-02T08:52:20.073Z,23.42
2022-08-02T08:57:18.075Z,23.24
2022-08-02T09:02:16.895Z,23.93
2022-08-02T09:07:18.166Z,24.14
2022-08-02T09:12:16.184Z,23.81
2022-08-02T09:17:12.738Z,23.51
2022-08-02T09:22:13.389Z,23.63
2022-08-02T09:27:12.210Z,24.00
2022-08-02T09:32:08.896Z,24.40
2022-08-02T09:37:05.467Z,24.60
2022-08-02T09:42:10.581Z,24.73
2022-08-02T09:47:16.879Z,24.82
2022-08-02T09:52:14.257Z,24.77
2022-08-02T09:57:10.920Z,24.81
2022-08-02T10:02:14.805Z,24.73
2022-08-02T10:07:14.397Z,25.27
2022-08-02T10:12:12.122Z,24.74
2022-08-02T10:17:09.016Z,24.18
2022-08-02T10:22:10.386Z,24.64
2022-08-02T10:27:21.998Z,25.10
2022-08-02T10:32:27.182Z,25.00
2022-08-02T10:37:29.452Z,25.33
2022-08-02T10:42:47.021Z,26.02
2022-08-02T10:48:14.576Z,25.89
2022-08-02T10:53:31.179Z,26.11
2022-08-02T10:58:30.239Z,25.91
2022-08-02T11:03:29.680Z,26.34
2022-08-02T11:08:26.029Z,26.28
2022-08-02T11:13:22.524Z,26.00
2022-08-02T11:18:20.102Z,24.58
2022-08-02T11:23:44.480Z,25.98
2022-08-02T11:28:49.167Z,25.63
2022-08-02T11:33:45.785Z,25.69
2022-08-02T11:38:42.272Z,25.85
2022-08-02T11:43:39.954Z,26.43
2022-08-02T11:48:38.717Z,25.70
2022-08-02T11:53:43.112Z,26.07
2022-08-02T11:58:39.620Z,25.74
2022-08-02T12:03:39.665Z,25.46
2022-08-02T12:08:37.321Z,26.12
2022-08-02T12:13:44.069Z,26.48
2022-08-02T12:19:17.063Z,26.89
2022-08-02T12:24:13.698Z,25.70
2022-08-02T12:29:10.958Z,26.01
2022-08-02T12:34:16.902Z,26.15
2022-08-02T12:39:14.267Z,26.03
2022-08-02T12:44:19.632Z,26.86
2022-08-02T12:49:19.057Z,27.12
2022-08-02T12:54:17.834Z,27.25
2022-08-02T12:59:16.684Z,27.54
2022-08-02T13:04:16.333Z,27.91
2022-08-02T13:09:17.204Z,28.36
2022-08-02T13:14:15.338Z,27.73
2022-08-02T13:19:13.218Z,27.31
2022-08-02T13:24:32.890Z,26.60
2022-08-02T13:29:27.598Z,26.81
2022-08-02T13:34:24.243Z,26.48
2022-08-02T13:39:20.596Z,26.62
2022-08-02T13:44:18.477Z,26.68
2022-08-02T13:49:18.813Z,26.39
2022-08-02T13:54:16.900Z,26.21
2022-08-02T13:59:55.254Z,26.45
2022-08-02T14:04:30.821Z,26.71
2022-08-02T14:09:27.406Z,26.39
2022-08-02T14:14:23.838Z,27.03
2022-08-02T14:19:21.903Z,27.21
2022-08-02T14:24:20.385Z,26.86
2022-08-02T14:29:17.248Z,26.76
2022-08-02T14:34:13.918Z,26.74
2022-08-02T14:39:10.731Z,26.90
2022-08-02T14:44:10.511Z,26.53
2022-08-02T14:49:09.284Z,27.28
2022-08-02T14:54:08.627Z,26.90
2022-08-02T14:59:08.693Z,27.73
2022-08-02T15:04:05.057Z,28.05
2022-08-02T15:09:01.621Z,27.50
2022-08-02T15:13:59.914Z,26.82
2022-08-02T15:18:56.260Z,27.02
2022-08-02T15:23:52.909Z,27.15
2022-08-02T15:28:55.633Z,26.99
2022-08-02T15:33:52.234Z,27.50
2022-08-02T15:38:48.897Z,27.80
2022-08-02T15:44:00.702Z,27.29
2022-08-02T15:48:57.874Z,27.92
2022-08-02T15:53:56.199Z,27.72
2022-08-02T15:58:56.023Z,28.09
2022-08-02T16:03:55.406Z,28.14
2022-08-02T16:08:54.896Z,27.93
2022-08-02T16:13:54.376Z,28.77
2022-08-02T16:18:51.728Z,28.34
2022-08-02T16:24:01.460Z,27.83
2022-08-02T16:28:59.770Z,27.69
2022-08-02T16:33:57.135Z,29.05
2022-08-02T16:38:54.531Z,29.24
2022-08-02T16:43:50.870Z,30.02
2022-08-02T16:48:51.113Z,30.85
2022-08-02T16:54:00.678Z,30.72
2022-08-02T16:58:59.507Z,30.51
2022-08-02T17:03:57.987Z,31.58
2022-08-02T17:08:56.340Z,30.24
2022-08-02T17:13:52.835Z,30.72
2022-08-02T17:18:49.507Z,28.48
2022-08-02T17:24:03.999Z,29.25
2022-08-02T17:29:16.106Z,32.54
2022-08-02T17:34:13.933Z,34.20
2022-08-02T17:39:13.192Z,34.02
2022-08-02T17:44:11.788Z,34.23
2022-08-02T17:49:17.554Z,34.92
2022-08-02T17:54:18.656Z,35.70
2022-08-02T17:59:30.856Z,35.42
2022-08-02T18:04:38.072Z,36.10
2022-08-02T18:09:34.622Z,36.50
2022-08-02T18:14:31.190Z,35.92
2022-08-02T18:19:42.663Z,35.43
2022-08-02T18:24:45.001Z,36.34
2022-08-02T18:29:41.411Z,35.74
2022-08-02T18:34:37.771Z,35.29
2022-08-02T18:39:38.454Z,34.95
2022-08-02T18:44:35.013Z,33.47
2022-08-02T18:49:46.185Z,30.78
2022-08-02T18:54:44.287Z,29.00
2022-08-02T18:59:41.920Z,28.08
2022-08-02T19:04:43.508Z,26.27
2022-08-02T19:09:43.263Z,25.05
2022-08-02T19:14:42.715Z,24.54
2022-08-02T19:19:39.175Z,24.13
2022-08-02T19:24:37.441Z,23.69
2022-08-02T19:29:42.672Z,23.24
2022-08-02T19:34:45.957Z,22.78
2022-08-02T19:39:45.731Z,22.49
2022-08-02T19:44:45.627Z,22.16
2022-08-02T19:49:42.218Z,21.91
2022-08-02T19:54:54.257Z,21.69
2022-08-02T19:59:53.910Z,21.47
2022-08-02T20:04:53.089Z,21.22
2022-08-02T20:09:50.615Z,20.89
2022-08-02T20:14:51.308Z,20.84
2022-08-02T20:19:47.833Z,20.76
2022-08-02T20:24:46.856Z,20.51
2022-08-02T20:29:48.697Z,20.43
2022-08-02T20:34:48.550Z,20.31
2022-08-02T20:39:45.149Z,20.28
2022-08-02T20:44:42.213Z,20.26
2022-08-02T20:49:58.598Z,20.16
2022-08-02T20:54:56.832Z,20.08
2022-08-02T20:59:53.192Z,19.94
2022-08-02T21:04:50.608Z,19.80
2022-08-02T21:09:52.740Z,19.71
2022-08-02T21:14:50.876Z,19.60
2022-08-02T21:19:51.746Z,19.55
2022-08-02T21:24:48.052Z,19.42
2022-08-02T21:29:44.395Z,19.32
2022-08-02T21:34:40.751Z,19.26
2022-08-02T21:39:37.097Z,19.16
2022-08-02T21:44:33.615Z,19.02
2022-08-02T21:50:08.659Z,18.91
2022-08-02T21:54:46.402Z,18.86
2022-08-02T21:59:46.171Z,18.75
2022-08-02T22:04:47.560Z,18.63
2022-08-02T22:09:45.576Z,18.56
2022-08-02T22:14:42.176Z,18.42
2022-08-02T22:19:38.840Z,18.33
2022-08-02T22:24:47.543Z,18.29
2022-08-02T22:29:44.065Z,18.16
2022-08-02T22:34:52.170Z,18.07
2022-08-02T22:40:08.667Z,17.97
2022-08-02T22:45:05.639Z,17.92
2022-08-02T22:50:02.264Z,17.92
2022-08-02T22:54:58.670Z,17.86
2022-08-02T22:59:55.926Z,17.76
2022-08-02T23:04:52.504Z,17.64
2022-08-02T23:09:48.852Z,17.57
2022-08-02T23:14:46.857Z,17.54
2022-08-02T23:19:52.502Z,17.42
2022-08-02T23:24:49.829Z,17.40
2022-08-02T23:29:47.717Z,17.48
2022-08-02T23:34:44.085Z,17.57
2022-08-02T23:39:40.461Z,17.52
2022-08-02T23:44:36.782Z,17.48
2022-08-02T23:49:33.204Z,17.48
2022-08-02T23:54:29.645Z,17.39
2022-08-02T23:59:26.069Z,17.35
